sensor_id;sensor_type;location;lat;lon;timestamp;temperature;humidity
10911;DHT22;5508;49.150;11.030;2024-03-02T00:02:19;4.80;99.90
10911;DHT22;5508;49.150;11.030;2024-03-02T00:05:21;4.80;99.90
10911;DHT22;5508;49.150;11.030;2024-03-02T00:08:25;4.80;99.90
10911;DHT22;5508;49.150;11.030;2024-03-02T00:11:26;4.80;99.90
10911;DHT22;5508;49.150;11.030;2024-03-02T00:14:30;4.80;99.90
10911;DHT22;5508;49.150;11.030;2024-03-02T00:17:31;4.80;99.90
10911;DHT22;5508;49.150;11.030;2024-03-02T00:20:31;4.80;99.90
10911;DHT22;5508;49.150;11.030;2024-03-02T00:23:33;4.90;99.90
10911;DHT22;5508;49.150;11.030;2024-03-02T00:26:35;4.80;99.90
10911;DHT22;5508;49.150;11.030;2024-03-02T00:29:35;4.90;99.90
10911;DHT22;5508;49.150;11.030;2024-03-02T00:32:36;4.90;99.90
10911;DHT22;5508;49.150;11.030;2024-03-02T00:35:37;4.80;99.90
10911;DHT22;5508;49.150;11.030;2024-03-02T00:38:48;4.80;99.90
10911;DHT22;5508;49.150;11.030;2024-03-02T00:41:49;4.80;99.90
10911;DHT22;5508;49.150;11.030;2024-03-02T00:44:50;4.60;99.90
10911;DHT22;5508;49.150;11.030;2024-03-02T00:47:51;4.60;99.90
10911;DHT22;5508;49.150;11.030;2024-03-02T00:50:52;4.50;99.90
10911;DHT22;5508;49.150;11.030;2024-03-02T00:53:55;4.40;99.90
10911;DHT22;5508;49.150;11.030;2024-03-02T00:56:57;4.50;99.90
10911;DHT22;5508;49.150;11.030;2024-03-02T00:59:58;4.40;99.90
10911;DHT22;5508;49.150;11.030;2024-03-02T01:02:59;4.40;99.90
10911;DHT22;5508;49.150;11.030;2024-03-02T01:06:00;4.40;99.90
10911;DHT22;5508;49.150;11.030;2024-03-02T01:09:01;4.30;99.90
10911;DHT22;5508;49.150;11.030;2024-03-02T01:12:01;4.20;99.90
10911;DHT22;5508;49.150;11.030;2024-03-02T01:15:02;4.20;99.90
10911;DHT22;5508;49.150;11.030;2024-03-02T01:18:06;4.10;99.90
10911;DHT22;5508;49.150;11.030;2024-03-02T01:21:07;4.20;99.90
10911;DHT22;5508;49.150;11.030;2024-03-02T01:24:07;4.20;99.90
10911;DHT22;5508;49.150;11.030;2024-03-02T01:27:08;4.10;99.90
10911;DHT22;5508;49.150;11.030;2024-03-02T01:30:09;4.10;99.90
10911;DHT22;5508;49.150;11.030;2024-03-02T01:33:09;4.00;99.90
10911;DHT22;5508;49.150;11.030;2024-03-02T01:36:10;3.90;99.90
10911;DHT22;5508;49.150;11.030;2024-03-02T01:39:10;3.90;99.90
10911;DHT22;5508;49.150;11.030;2024-03-02T01:42:11;3.90;99.90
10911;DHT22;5508;49.150;11.030;2024-03-02T01:45:12;3.90;99.90
10911;DHT22;5508;49.150;11.030;2024-03-02T01:48:12;3.90;99.90
10911;DHT22;5508;49.150;11.030;2024-03-02T01:51:13;3.90;99.90
10911;DHT22;5508;49.150;11.030;2024-03-02T01:54:14;3.90;99.90
10911;DHT22;5508;49.150;11.030;2024-03-02T01:57:14;4.00;99.90
10911;DHT22;5508;49.150;11.030;2024-03-02T02:00:15;4.00;99.90
10911;DHT22;5508;49.150;11.030;2024-03-02T02:03:16;4.00;99.90
10911;DHT22;5508;49.150;11.030;2024-03-02T02:06:16;4.10;99.90
10911;DHT22;5508;49.150;11.030;2024-03-02T02:09:17;4.10;99.90
10911;DHT22;5508;49.150;11.030;2024-03-02T02:12:19;4.10;99.90
10911;DHT22;5508;49.150;11.030;2024-03-02T02:15:30;4.10;99.90
10911;DHT22;5508;49.150;11.030;2024-03-02T02:18:31;4.10;99.90
10911;DHT22;5508;49.150;11.030;2024-03-02T02:21:31;4.10;99.90
10911;DHT22;5508;49.150;11.030;2024-03-02T02:24:32;4.10;99.90
10911;DHT22;5508;49.150;11.030;2024-03-02T02:27:32;4.20;99.90
10911;DHT22;5508;49.150;11.030;2024-03-02T02:30:33;4.10;99.90
10911;DHT22;5508;49.150;11.030;2024-03-02T02:33:33;4.00;99.90
10911;DHT22;5508;49.150;11.030;2024-03-02T02:36:34;4.10;99.90
10911;DHT22;5508;49.150;11.030;2024-03-02T02:39:37;4.10;99.90
10911;DHT22;5508;49.150;11.030;2024-03-02T02:42:39;4.30;99.90
10911;DHT22;5508;49.150;11.030;2024-03-02T02:45:39;4.30;99.90
10911;DHT22;5508;49.150;11.030;2024-03-02T02:48:40;4.20;99.90
10911;DHT22;5508;49.150;11.030;2024-03-02T02:51:40;4.30;99.90
10911;DHT22;5508;49.150;11.030;2024-03-02T02:54:41;4.20;99.90
10911;DHT22;5508;49.150;11.030;2024-03-02T02:57:42;4.10;99.90
10911;DHT22;5508;49.150;11.030;2024-03-02T03:00:43;4.10;99.90
10911;DHT22;5508;49.150;11.030;2024-03-02T03:03:44;4.00;99.90
10911;DHT22;5508;49.150;11.030;2024-03-02T03:06:44;4.00;99.90
10911;DHT22;5508;49.150;11.030;2024-03-02T03:09:46;3.90;99.90
10911;DHT22;5508;49.150;11.030;2024-03-02T03:12:47;3.90;99.90
10911;DHT22;5508;49.150;11.030;2024-03-02T03:15:48;3.90;99.90
10911;DHT22;5508;49.150;11.030;2024-03-02T03:18:48;3.90;99.90
10911;DHT22;5508;49.150;11.030;2024-03-02T03:21:51;3.90;99.90
10911;DHT22;5508;49.150;11.030;2024-03-02T03:24:52;3.90;99.90
10911;DHT22;5508;49.150;11.030;2024-03-02T03:27:53;3.90;99.90
10911;DHT22;5508;49.150;11.030;2024-03-02T03:30:53;3.90;99.90
10911;DHT22;5508;49.150;11.030;2024-03-02T03:33:54;3.80;99.90
10911;DHT22;5508;49.150;11.030;2024-03-02T03:36:55;3.80;99.90
10911;DHT22;5508;49.150;11.030;2024-03-02T03:39:55;3.80;99.90
10911;DHT22;5508;49.150;11.030;2024-03-02T03:42:56;3.80;99.90
10911;DHT22;5508;49.150;11.030;2024-03-02T03:45:57;3.80;99.90
10911;DHT22;5508;49.150;11.030;2024-03-02T03:48:57;3.80;99.90
10911;DHT22;5508;49.150;11.030;2024-03-02T03:51:58;3.80;99.90
10911;DHT22;5508;49.150;11.030;2024-03-02T03:54:59;3.80;99.90
10911;DHT22;5508;49.150;11.030;2024-03-02T03:58:00;3.70;99.90
10911;DHT22;5508;49.150;11.030;2024-03-02T04:01:00;3.70;99.90
10911;DHT22;5508;49.150;11.030;2024-03-02T04:04:01;3.70;99.90
10911;DHT22;5508;49.150;11.030;2024-03-02T04:07:03;3.70;99.90
10911;DHT22;5508;49.150;11.030;2024-03-02T04:10:05;3.70;99.90
10911;DHT22;5508;49.150;11.030;2024-03-02T04:13:08;3.70;99.90
10911;DHT22;5508;49.150;11.030;2024-03-02T04:16:09;3.70;99.90
10911;DHT22;5508;49.150;11.030;2024-03-02T04:19:09;3.60;99.90
10911;DHT22;5508;49.150;11.030;2024-03-02T04:22:10;3.60;99.90
10911;DHT22;5508;49.150;11.030;2024-03-02T04:25:10;3.50;99.90
10911;DHT22;5508;49.150;11.030;2024-03-02T04:28:11;3.40;99.90
10911;DHT22;5508;49.150;11.030;2024-03-02T04:31:12;3.40;99.90
10911;DHT22;5508;49.150;11.030;2024-03-02T04:34:13;3.30;99.90
10911;DHT22;5508;49.150;11.030;2024-03-02T04:37:14;3.10;99.90
10911;DHT22;5508;49.150;11.030;2024-03-02T04:40:15;3.00;99.90
10911;DHT22;5508;49.150;11.030;2024-03-02T04:43:16;3.00;99.90
10911;DHT22;5508;49.150;11.030;2024-03-02T04:46:16;3.00;99.90
10911;DHT22;5508;49.150;11.030;2024-03-02T04:49:17;3.00;99.90
10911;DHT22;5508;49.150;11.030;2024-03-02T04:52:18;2.90;99.90
10911;DHT22;5508;49.150;11.030;2024-03-02T04:55:18;2.90;99.90
10911;DHT22;5508;49.150;11.030;2024-03-02T04:58:19;2.90;99.90
10911;DHT22;5508;49.150;11.030;2024-03-02T05:01:19;2.90;99.90
10911;DHT22;5508;49.150;11.030;2024-03-02T05:04:20;3.00;99.90
10911;DHT22;5508;49.150;11.030;2024-03-02T05:07:21;3.00;99.90
10911;DHT22;5508;49.150;11.030;2024-03-02T05:10:22;3.00;99.90
10911;DHT22;5508;49.150;11.030;2024-03-02T05:13:22;3.00;99.90
10911;DHT22;5508;49.150;11.030;2024-03-02T05:16:23;3.00;99.90
10911;DHT22;5508;49.150;11.030;2024-03-02T05:19:23;3.00;99.90
10911;DHT22;5508;49.150;11.030;2024-03-02T05:22:25;3.00;99.90
10911;DHT22;5508;49.150;11.030;2024-03-02T05:25:26;2.90;99.90
10911;DHT22;5508;49.150;11.030;2024-03-02T05:28:26;2.90;99.90
10911;DHT22;5508;49.150;11.030;2024-03-02T05:31:27;2.80;99.90
10911;DHT22;5508;49.150;11.030;2024-03-02T05:34:28;2.80;99.90
10911;DHT22;5508;49.150;11.030;2024-03-02T05:37:29;2.80;99.90
10911;DHT22;5508;49.150;11.030;2024-03-02T05:40:29;2.80;99.90
10911;DHT22;5508;49.150;11.030;2024-03-02T05:43:30;2.80;99.90
10911;DHT22;5508;49.150;11.030;2024-03-02T05:46:30;2.90;99.90
10911;DHT22;5508;49.150;11.030;2024-03-02T05:49:31;2.90;99.90
10911;DHT22;5508;49.150;11.030;2024-03-02T05:52:31;2.80;99.90
10911;DHT22;5508;49.150;11.030;2024-03-02T05:55:32;2.70;99.90
10911;DHT22;5508;49.150;11.030;2024-03-02T05:58:33;2.70;99.90
10911;DHT22;5508;49.150;11.030;2024-03-02T06:01:52;2.70;99.90
10911;DHT22;5508;49.150;11.030;2024-03-02T06:04:54;2.60;99.90
10911;DHT22;5508;49.150;11.030;2024-03-02T06:07:55;2.60;99.90
10911;DHT22;5508;49.150;11.030;2024-03-02T06:10:55;2.50;99.90
10911;DHT22;5508;49.150;11.030;2024-03-02T06:13:56;2.50;99.90
10911;DHT22;5508;49.150;11.030;2024-03-02T06:16:57;2.40;99.90
10911;DHT22;5508;49.150;11.030;2024-03-02T06:19:57;2.50;99.90
10911;DHT22;5508;49.150;11.030;2024-03-02T06:22:58;2.40;99.90
10911;DHT22;5508;49.150;11.030;2024-03-02T06:25:59;2.40;99.90
10911;DHT22;5508;49.150;11.030;2024-03-02T06:28:59;2.30;99.90
10911;DHT22;5508;49.150;11.030;2024-03-02T06:32:00;2.40;99.90
10911;DHT22;5508;49.150;11.030;2024-03-02T06:35:00;2.40;99.90
10911;DHT22;5508;49.150;11.030;2024-03-02T06:38:02;2.50;99.90
10911;DHT22;5508;49.150;11.030;2024-03-02T06:41:02;2.50;99.90
10911;DHT22;5508;49.150;11.030;2024-03-02T06:44:03;2.70;99.90
10911;DHT22;5508;49.150;11.030;2024-03-02T06:47:04;2.70;99.90
10911;DHT22;5508;49.150;11.030;2024-03-02T06:50:05;2.80;99.90
10911;DHT22;5508;49.150;11.030;2024-03-02T06:53:07;2.90;99.90
10911;DHT22;5508;49.150;11.030;2024-03-02T06:56:07;3.00;99.90
10911;DHT22;5508;49.150;11.030;2024-03-02T06:59:08;3.10;99.90
10911;DHT22;5508;49.150;11.030;2024-03-02T07:02:09;3.20;99.90
10911;DHT22;5508;49.150;11.030;2024-03-02T07:05:10;3.30;99.90
10911;DHT22;5508;49.150;11.030;2024-03-02T07:08:11;3.40;99.90
10911;DHT22;5508;49.150;11.030;2024-03-02T07:11:12;3.50;99.90
10911;DHT22;5508;49.150;11.030;2024-03-02T07:14:12;3.60;99.90
10911;DHT22;5508;49.150;11.030;2024-03-02T07:17:13;3.70;99.90
10911;DHT22;5508;49.150;11.030;2024-03-02T07:20:14;3.90;99.90
10911;DHT22;5508;49.150;11.030;2024-03-02T07:23:14;4.00;99.90
10911;DHT22;5508;49.150;11.030;2024-03-02T07:26:21;4.20;99.90
10911;DHT22;5508;49.150;11.030;2024-03-02T07:29:22;4.40;99.90
10911;DHT22;5508;49.150;11.030;2024-03-02T07:32:22;4.50;99.90
10911;DHT22;5508;49.150;11.030;2024-03-02T07:35:23;4.60;99.90
10911;DHT22;5508;49.150;11.030;2024-03-02T07:38:28;4.70;99.90
10911;DHT22;5508;49.150;11.030;2024-03-02T07:41:29;4.80;99.90
10911;DHT22;5508;49.150;11.030;2024-03-02T07:44:29;5.10;99.90
10911;DHT22;5508;49.150;11.030;2024-03-02T07:47:30;5.30;99.90
10911;DHT22;5508;49.150;11.030;2024-03-02T07:50:31;5.40;99.90
10911;DHT22;5508;49.150;11.030;2024-03-02T07:53:31;5.60;99.90
10911;DHT22;5508;49.150;11.030;2024-03-02T07:56:32;5.70;99.90
10911;DHT22;5508;49.150;11.030;2024-03-02T07:59:32;5.80;99.90
10911;DHT22;5508;49.150;11.030;2024-03-02T08:02:33;5.90;99.90
10911;DHT22;5508;49.150;11.030;2024-03-02T08:05:34;6.00;99.90
10911;DHT22;5508;49.150;11.030;2024-03-02T08:08:34;6.10;99.90
10911;DHT22;5508;49.150;11.030;2024-03-02T08:11:35;6.10;99.90
10911;DHT22;5508;49.150;11.030;2024-03-02T08:14:36;6.30;99.90
10911;DHT22;5508;49.150;11.030;2024-03-02T08:17:37;6.30;99.90
10911;DHT22;5508;49.150;11.030;2024-03-02T08:20:37;6.40;99.90
10911;DHT22;5508;49.150;11.030;2024-03-02T08:23:39;6.50;99.90
10911;DHT22;5508;49.150;11.030;2024-03-02T08:26:41;6.70;99.90
10911;DHT22;5508;49.150;11.030;2024-03-02T08:29:41;6.80;99.90
10911;DHT22;5508;49.150;11.030;2024-03-02T08:32:42;6.90;99.90
10911;DHT22;5508;49.150;11.030;2024-03-02T08:35:43;6.90;99.90
10911;DHT22;5508;49.150;11.030;2024-03-02T08:38:43;6.90;99.90
10911;DHT22;5508;49.150;11.030;2024-03-02T08:41:45;7.10;99.90
10911;DHT22;5508;49.150;11.030;2024-03-02T08:44:45;7.30;99.90
10911;DHT22;5508;49.150;11.030;2024-03-02T08:47:47;7.50;99.90
10911;DHT22;5508;49.150;11.030;2024-03-02T08:50:47;7.80;99.90
10911;DHT22;5508;49.150;11.030;2024-03-02T08:53:48;8.10;99.90
10911;DHT22;5508;49.150;11.030;2024-03-02T08:56:49;8.40;99.90
10911;DHT22;5508;49.150;11.030;2024-03-02T08:59:50;8.60;99.90
10911;DHT22;5508;49.150;11.030;2024-03-02T09:02:51;8.70;97.20
10911;DHT22;5508;49.150;11.030;2024-03-02T09:05:51;8.90;98.70
10911;DHT22;5508;49.150;11.030;2024-03-02T09:08:52;8.80;98.60
10911;DHT22;5508;49.150;11.030;2024-03-02T09:11:53;8.90;98.40
10911;DHT22;5508;49.150;11.030;2024-03-02T09:14:55;9.10;97.00
10911;DHT22;5508;49.150;11.030;2024-03-02T09:17:55;9.40;94.80
10911;DHT22;5508;49.150;11.030;2024-03-02T09:20:56;9.60;92.80
10911;DHT22;5508;49.150;11.030;2024-03-02T09:23:57;9.80;92.90
10911;DHT22;5508;49.150;11.030;2024-03-02T09:26:58;9.90;89.00
10911;DHT22;5508;49.150;11.030;2024-03-02T09:29:59;9.90;88.50
10911;DHT22;5508;49.150;11.030;2024-03-02T09:32:59;10.00;90.70
10911;DHT22;5508;49.150;11.030;2024-03-02T09:36:00;10.20;90.60
10911;DHT22;5508;49.150;11.030;2024-03-02T09:39:00;10.40;89.00
10911;DHT22;5508;49.150;11.030;2024-03-02T09:42:01;10.30;87.90
10911;DHT22;5508;49.150;11.030;2024-03-02T09:45:05;10.40;87.40
10911;DHT22;5508;49.150;11.030;2024-03-02T09:48:06;10.30;89.60
10911;DHT22;5508;49.150;11.030;2024-03-02T09:51:07;10.40;88.90
10911;DHT22;5508;49.150;11.030;2024-03-02T09:54:09;10.50;87.60
10911;DHT22;5508;49.150;11.030;2024-03-02T09:57:10;10.30;85.70
10911;DHT22;5508;49.150;11.030;2024-03-02T10:00:11;10.40;87.00
10911;DHT22;5508;49.150;11.030;2024-03-02T10:03:15;10.30;87.90
10911;DHT22;5508;49.150;11.030;2024-03-02T10:06:28;10.20;87.60
10911;DHT22;5508;49.150;11.030;2024-03-02T10:09:29;10.10;87.90
10911;DHT22;5508;49.150;11.030;2024-03-02T10:12:30;10.40;87.80
10911;DHT22;5508;49.150;11.030;2024-03-02T10:15:30;10.40;86.60
10911;DHT22;5508;49.150;11.030;2024-03-02T10:18:31;10.50;85.30
10911;DHT22;5508;49.150;11.030;2024-03-02T10:21:31;10.50;86.50
10911;DHT22;5508;49.150;11.030;2024-03-02T10:24:40;10.70;86.40
10911;DHT22;5508;49.150;11.030;2024-03-02T10:27:41;10.80;84.10
10911;DHT22;5508;49.150;11.030;2024-03-02T10:30:41;10.90;83.60
10911;DHT22;5508;49.150;11.030;2024-03-02T10:33:42;10.80;83.20
10911;DHT22;5508;49.150;11.030;2024-03-02T10:36:43;10.80;84.00
10911;DHT22;5508;49.150;11.030;2024-03-02T10:39:48;10.50;83.90
10911;DHT22;5508;49.150;11.030;2024-03-02T10:42:52;10.40;83.80
10911;DHT22;5508;49.150;11.030;2024-03-02T10:45:54;10.40;84.60
10911;DHT22;5508;49.150;11.030;2024-03-02T10:48:59;10.40;85.30
10911;DHT22;5508;49.150;11.030;2024-03-02T10:52:01;10.50;84.80
10911;DHT22;5508;49.150;11.030;2024-03-02T10:55:02;10.50;84.40
10911;DHT22;5508;49.150;11.030;2024-03-02T10:58:06;10.60;83.80
10911;DHT22;5508;49.150;11.030;2024-03-02T11:01:11;10.70;82.50
10911;DHT22;5508;49.150;11.030;2024-03-02T11:04:13;10.60;82.50
10911;DHT22;5508;49.150;11.030;2024-03-02T11:07:15;10.50;84.60
10911;DHT22;5508;49.150;11.030;2024-03-02T11:10:18;10.80;82.10
10911;DHT22;5508;49.150;11.030;2024-03-02T11:13:27;11.10;83.30
10911;DHT22;5508;49.150;11.030;2024-03-02T11:16:39;11.10;80.60
10911;DHT22;5508;49.150;11.030;2024-03-02T11:19:42;11.10;82.10
10911;DHT22;5508;49.150;11.030;2024-03-02T11:22:43;11.00;83.20
10911;DHT22;5508;49.150;11.030;2024-03-02T11:25:44;11.20;82.80
10911;DHT22;5508;49.150;11.030;2024-03-02T11:28:45;10.90;83.30
10911;DHT22;5508;49.150;11.030;2024-03-02T11:31:58;11.10;82.80
10911;DHT22;5508;49.150;11.030;2024-03-02T11:35:02;11.10;82.60
10911;DHT22;5508;49.150;11.030;2024-03-02T11:38:03;11.20;82.60
10911;DHT22;5508;49.150;11.030;2024-03-02T11:41:07;11.50;79.80
10911;DHT22;5508;49.150;11.030;2024-03-02T11:44:09;11.50;78.60
10911;DHT22;5508;49.150;11.030;2024-03-02T11:50:15;11.50;79.20
10911;DHT22;5508;49.150;11.030;2024-03-02T11:53:16;12.00;78.60
10911;DHT22;5508;49.150;11.030;2024-03-02T11:56:18;12.10;76.30
10911;DHT22;5508;49.150;11.030;2024-03-02T11:59:20;12.10;76.10
10911;DHT22;5508;49.150;11.030;2024-03-02T12:02:21;12.00;77.20
10911;DHT22;5508;49.150;11.030;2024-03-02T12:05:22;12.00;75.60
10911;DHT22;5508;49.150;11.030;2024-03-02T12:08:23;11.90;77.30
10911;DHT22;5508;49.150;11.030;2024-03-02T12:11:24;11.90;79.50
10911;DHT22;5508;49.150;11.030;2024-03-02T12:14:25;12.10;78.20
10911;DHT22;5508;49.150;11.030;2024-03-02T12:17:29;12.00;77.40
10911;DHT22;5508;49.150;11.030;2024-03-02T12:20:31;11.90;75.80
10911;DHT22;5508;49.150;11.030;2024-03-02T12:23:32;12.00;76.50
10911;DHT22;5508;49.150;11.030;2024-03-02T12:26:33;11.90;76.20
10911;DHT22;5508;49.150;11.030;2024-03-02T12:29:34;12.20;75.60
10911;DHT22;5508;49.150;11.030;2024-03-02T12:32:34;12.20;74.80
10911;DHT22;5508;49.150;11.030;2024-03-02T12:35:36;12.40;72.20
10911;DHT22;5508;49.150;11.030;2024-03-02T12:38:36;12.70;72.90
10911;DHT22;5508;49.150;11.030;2024-03-02T12:41:37;12.70;72.40
10911;DHT22;5508;49.150;11.030;2024-03-02T12:44:39;12.60;71.20
10911;DHT22;5508;49.150;11.030;2024-03-02T12:47:41;12.40;73.20
10911;DHT22;5508;49.150;11.030;2024-03-02T12:50:42;12.60;71.70
10911;DHT22;5508;49.150;11.030;2024-03-02T12:53:44;12.50;70.00
10911;DHT22;5508;49.150;11.030;2024-03-02T12:56:45;12.40;73.10
10911;DHT22;5508;49.150;11.030;2024-03-02T12:59:47;12.70;72.10
10911;DHT22;5508;49.150;11.030;2024-03-02T13:02:48;12.30;72.90
10911;DHT22;5508;49.150;11.030;2024-03-02T13:05:51;12.20;71.90
10911;DHT22;5508;49.150;11.030;2024-03-02T13:08:52;12.30;75.20
10911;DHT22;5508;49.150;11.030;2024-03-02T13:11:53;12.30;71.80
10911;DHT22;5508;49.150;11.030;2024-03-02T13:14:54;12.00;74.00
10911;DHT22;5508;49.150;11.030;2024-03-02T13:17:58;11.80;74.60
10911;DHT22;5508;49.150;11.030;2024-03-02T13:21:00;11.40;74.60
10911;DHT22;5508;49.150;11.030;2024-03-02T13:24:01;11.20;75.70
10911;DHT22;5508;49.150;11.030;2024-03-02T13:27:02;11.30;77.40
10911;DHT22;5508;49.150;11.030;2024-03-02T13:30:04;11.20;75.60
10911;DHT22;5508;49.150;11.030;2024-03-02T13:33:09;11.10;77.60
10911;DHT22;5508;49.150;11.030;2024-03-02T13:36:09;11.00;77.00
10911;DHT22;5508;49.150;11.030;2024-03-02T13:39:10;11.10;78.30
10911;DHT22;5508;49.150;11.030;2024-03-02T13:42:11;11.10;79.20
10911;DHT22;5508;49.150;11.030;2024-03-02T13:45:14;11.20;76.60
10911;DHT22;5508;49.150;11.030;2024-03-02T13:48:17;11.30;76.80
10911;DHT22;5508;49.150;11.030;2024-03-02T16:34:27;11.50;76.20
10911;DHT22;5508;49.150;11.030;2024-03-02T16:37:27;8.70;92.40
10911;DHT22;5508;49.150;11.030;2024-03-02T16:40:28;8.60;93.20
10911;DHT22;5508;49.150;11.030;2024-03-02T16:43:30;8.50;92.90
10911;DHT22;5508;49.150;11.030;2024-03-02T16:46:31;8.40;94.20
10911;DHT22;5508;49.150;11.030;2024-03-02T16:49:32;8.30;94.60
10911;DHT22;5508;49.150;11.030;2024-03-02T16:52:32;8.20;95.00
10911;DHT22;5508;49.150;11.030;2024-03-02T16:55:33;8.10;94.80
10911;DHT22;5508;49.150;11.030;2024-03-02T16:58:33;8.00;95.00
10911;DHT22;5508;49.150;11.030;2024-03-02T17:01:34;7.90;95.40
10911;DHT22;5508;49.150;11.030;2024-03-02T17:04:35;7.90;96.20
10911;DHT22;5508;49.150;11.030;2024-03-02T17:07:35;7.70;96.70
10911;DHT22;5508;49.150;11.030;2024-03-02T17:10:36;7.60;96.80
10911;DHT22;5508;49.150;11.030;2024-03-02T17:13:37;7.50;97.80
10911;DHT22;5508;49.150;11.030;2024-03-02T17:16:38;7.40;98.20
10911;DHT22;5508;49.150;11.030;2024-03-02T17:19:39;7.30;98.90
10911;DHT22;5508;49.150;11.030;2024-03-02T17:22:39;7.20;99.50
10911;DHT22;5508;49.150;11.030;2024-03-02T17:25:42;7.10;99.90
10911;DHT22;5508;49.150;11.030;2024-03-02T17:28:43;7.10;99.90
10911;DHT22;5508;49.150;11.030;2024-03-02T17:31:45;7.00;99.90
10911;DHT22;5508;49.150;11.030;2024-03-02T17:34:45;7.00;99.90
10911;DHT22;5508;49.150;11.030;2024-03-02T17:37:46;7.00;99.90
10911;DHT22;5508;49.150;11.030;2024-03-02T17:40:47;6.80;99.90
10911;DHT22;5508;49.150;11.030;2024-03-02T17:43:47;6.70;99.90
10911;DHT22;5508;49.150;11.030;2024-03-02T17:46:48;6.70;99.90
10911;DHT22;5508;49.150;11.030;2024-03-02T17:49:49;6.60;99.90
10911;DHT22;5508;49.150;11.030;2024-03-02T17:52:50;6.60;99.90
10911;DHT22;5508;49.150;11.030;2024-03-02T17:55:50;6.60;99.90
10911;DHT22;5508;49.150;11.030;2024-03-02T17:58:51;6.50;99.90
10911;DHT22;5508;49.150;11.030;2024-03-02T18:01:51;6.40;99.90
10911;DHT22;5508;49.150;11.030;2024-03-02T18:04:52;6.40;99.90
10911;DHT22;5508;49.150;11.030;2024-03-02T18:07:52;6.30;99.90
10911;DHT22;5508;49.150;11.030;2024-03-02T18:10:54;6.20;99.90
10911;DHT22;5508;49.150;11.030;2024-03-02T18:13:55;6.10;99.90
10911;DHT22;5508;49.150;11.030;2024-03-02T18:16:56;6.10;99.90
10911;DHT22;5508;49.150;11.030;2024-03-02T18:19:56;6.00;99.90
10911;DHT22;5508;49.150;11.030;2024-03-02T18:22:57;6.00;99.90
10911;DHT22;5508;49.150;11.030;2024-03-02T18:25:58;5.90;99.90
10911;DHT22;5508;49.150;11.030;2024-03-02T18:28:59;5.90;99.90
10911;DHT22;5508;49.150;11.030;2024-03-02T18:32:00;5.80;99.90
10911;DHT22;5508;49.150;11.030;2024-03-02T18:35:00;5.80;99.90
10911;DHT22;5508;49.150;11.030;2024-03-02T18:38:01;5.70;99.90
10911;DHT22;5508;49.150;11.030;2024-03-02T18:41:01;5.60;99.90
10911;DHT22;5508;49.150;11.030;2024-03-02T18:44:03;5.60;99.90
10911;DHT22;5508;49.150;11.030;2024-03-02T18:47:04;5.50;99.90
10911;DHT22;5508;49.150;11.030;2024-03-02T18:50:05;5.40;99.90
10911;DHT22;5508;49.150;11.030;2024-03-02T18:53:08;5.40;99.90
10911;DHT22;5508;49.150;11.030;2024-03-02T18:56:09;5.30;99.90
10911;DHT22;5508;49.150;11.030;2024-03-02T18:59:10;5.20;99.90
10911;DHT22;5508;49.150;11.030;2024-03-02T19:02:10;5.10;99.90
10911;DHT22;5508;49.150;11.030;2024-03-02T19:05:11;4.90;99.90
10911;DHT22;5508;49.150;11.030;2024-03-02T19:08:12;4.80;99.90
10911;DHT22;5508;49.150;11.030;2024-03-02T19:11:18;4.70;99.90
10911;DHT22;5508;49.150;11.030;2024-03-02T19:14:19;4.70;99.90
10911;DHT22;5508;49.150;11.030;2024-03-02T19:17:19;4.60;99.90
10911;DHT22;5508;49.150;11.030;2024-03-02T19:20:20;4.60;99.90
10911;DHT22;5508;49.150;11.030;2024-03-02T19:23:21;4.50;99.90
10911;DHT22;5508;49.150;11.030;2024-03-02T19:26:21;4.40;99.90
10911;DHT22;5508;49.150;11.030;2024-03-02T19:29:22;4.30;99.90
10911;DHT22;5508;49.150;11.030;2024-03-02T19:32:28;4.30;99.90
10911;DHT22;5508;49.150;11.030;2024-03-02T19:35:29;4.30;99.90
10911;DHT22;5508;49.150;11.030;2024-03-02T19:38:29;4.30;99.90
10911;DHT22;5508;49.150;11.030;2024-03-02T19:41:30;4.10;99.90
10911;DHT22;5508;49.150;11.030;2024-03-02T19:44:31;4.10;99.90
10911;DHT22;5508;49.150;11.030;2024-03-02T19:47:33;4.00;99.90
10911;DHT22;5508;49.150;11.030;2024-03-02T19:50:35;3.90;99.90
10911;DHT22;5508;49.150;11.030;2024-03-02T19:53:36;3.80;99.90
10911;DHT22;5508;49.150;11.030;2024-03-02T19:56:38;3.70;99.90
10911;DHT22;5508;49.150;11.030;2024-03-02T19:59:39;3.60;99.90
10911;DHT22;5508;49.150;11.030;2024-03-02T20:02:40;3.60;99.90
10911;DHT22;5508;49.150;11.030;2024-03-02T20:05:43;3.50;99.90
10911;DHT22;5508;49.150;11.030;2024-03-02T20:08:43;3.40;99.90
10911;DHT22;5508;49.150;11.030;2024-03-02T20:11:44;3.40;99.90
10911;DHT22;5508;49.150;11.030;2024-03-02T20:14:45;3.30;99.90
10911;DHT22;5508;49.150;11.030;2024-03-02T20:17:45;3.20;99.90
10911;DHT22;5508;49.150;11.030;2024-03-02T20:20:46;3.10;99.90
10911;DHT22;5508;49.150;11.030;2024-03-02T20:23:47;3.10;99.90
10911;DHT22;5508;49.150;11.030;2024-03-02T20:26:48;3.00;99.90
10911;DHT22;5508;49.150;11.030;2024-03-02T20:29:48;3.00;99.90
10911;DHT22;5508;49.150;11.030;2024-03-02T20:32:49;2.90;99.90
10911;DHT22;5508;49.150;11.030;2024-03-02T20:35:50;3.00;99.90
10911;DHT22;5508;49.150;11.030;2024-03-02T20:38:50;3.00;99.90
10911;DHT22;5508;49.150;11.030;2024-03-02T20:41:51;2.90;99.90
10911;DHT22;5508;49.150;11.030;2024-03-02T20:44:52;3.00;99.90
10911;DHT22;5508;49.150;11.030;2024-03-02T20:47:52;3.00;99.90
10911;DHT22;5508;49.150;11.030;2024-03-02T20:50:53;2.80;99.90
10911;DHT22;5508;49.150;11.030;2024-03-02T20:53:53;2.80;99.90
10911;DHT22;5508;49.150;11.030;2024-03-02T20:56:54;2.70;99.90
10911;DHT22;5508;49.150;11.030;2024-03-02T20:59:55;2.70;99.90
10911;DHT22;5508;49.150;11.030;2024-03-02T21:02:56;2.70;99.90
10911;DHT22;5508;49.150;11.030;2024-03-02T21:05:57;2.60;99.90
10911;DHT22;5508;49.150;11.030;2024-03-02T21:08:58;2.60;99.90
10911;DHT22;5508;49.150;11.030;2024-03-02T21:11:59;2.60;99.90
10911;DHT22;5508;49.150;11.030;2024-03-02T21:14:59;2.70;99.90
10911;DHT22;5508;49.150;11.030;2024-03-02T21:18:00;2.60;99.90
10911;DHT22;5508;49.150;11.030;2024-03-02T21:21:04;2.50;99.90
10911;DHT22;5508;49.150;11.030;2024-03-02T21:24:05;2.40;99.90
10911;DHT22;5508;49.150;11.030;2024-03-02T21:27:06;2.40;99.90
10911;DHT22;5508;49.150;11.030;2024-03-02T21:30:08;2.40;99.90
10911;DHT22;5508;49.150;11.030;2024-03-02T21:33:09;2.40;99.90
10911;DHT22;5508;49.150;11.030;2024-03-02T21:36:09;2.40;99.90
10911;DHT22;5508;49.150;11.030;2024-03-02T21:39:10;2.30;99.90
10911;DHT22;5508;49.150;11.030;2024-03-02T21:42:10;2.40;99.90
10911;DHT22;5508;49.150;11.030;2024-03-02T21:45:11;2.40;99.90
10911;DHT22;5508;49.150;11.030;2024-03-02T21:48:11;2.30;99.90
10911;DHT22;5508;49.150;11.030;2024-03-02T21:51:15;2.30;99.90
10911;DHT22;5508;49.150;11.030;2024-03-02T21:54:16;2.30;99.90
10911;DHT22;5508;49.150;11.030;2024-03-02T21:57:16;2.30;99.90
10911;DHT22;5508;49.150;11.030;2024-03-02T22:00:20;2.30;99.90
10911;DHT22;5508;49.150;11.030;2024-03-02T22:03:20;2.30;99.90
10911;DHT22;5508;49.150;11.030;2024-03-02T22:06:21;2.40;99.90